Time;durP1;ratioP1;P1;durP2;ratioP2;P2;SDS_P1;SDS_P2;PMS_P1;PMS_P2;Temp;Humidity;BMP_temperature;BMP_pressure;BME280_temperature;BME280_humidity;BME280_pressure;Samples;Min_cycle;Max_cycle;Signal;HPM_P1;HPM_P2
2022/12/27 00:02:10;;;;;;;7.50;2.72;;;2.50;99.90;;;;;;6160691;23;20052;-71
2022/12/27 00:04:38;;;;;;;7.72;2.47;;;2.50;99.90;;;;;;6160450;23;20005;-71
2022/12/27 00:07:05;;;;;;;10.63;2.47;;;2.50;99.90;;;;;;6160232;23;20005;-71
2022/12/27 00:09:32;;;;;;;8.13;2.40;;;2.50;99.90;;;;;;6160775;23;20001;-71
2022/12/27 00:12:00;;;;;;;8.68;2.70;;;2.50;99.90;;;;;;6159163;23;20366;-70
2022/12/27 00:14:27;;;;;;;10.35;2.33;;;2.50;99.90;;;;;;6160765;23;20008;-70
2022/12/27 00:16:54;;;;;;;6.65;1.92;;;2.50;99.90;;;;;;6160896;23;20004;-70
2022/12/27 00:19:21;;;;;;;18.13;2.80;;;2.50;99.90;;;;;;6161065;23;19997;-70
2022/12/27 00:21:49;;;;;;;11.40;2.80;;;2.50;99.90;;;;;;6159097;23;20005;-70
2022/12/27 00:24:16;;;;;;;9.32;1.83;;;2.50;99.90;;;;;;6160408;23;20275;-70
2022/12/27 00:26:44;;;;;;;8.15;2.33;;;2.50;99.90;;;;;;6159053;23;20010;-70
2022/12/27 00:29:11;;;;;;;9.85;2.33;;;2.50;99.90;;;;;;6159037;23;20040;-70
2022/12/27 00:31:38;;;;;;;10.70;1.63;;;2.50;99.90;;;;;;6160390;23;20072;-70
2022/12/27 00:34:06;;;;;;;9.73;2.45;;;2.50;99.90;;;;;;6160366;23;20029;-70
2022/12/27 00:36:34;;;;;;;5.22;2.15;;;2.50;99.90;;;;;;6160236;23;20062;-70
2022/12/27 00:39:02;;;;;;;7.22;1.85;;;2.50;99.90;;;;;;6158954;23;20010;-70
2022/12/27 00:41:29;;;;;;;8.27;2.05;;;2.50;99.90;;;;;;6160198;23;20290;-71
2022/12/27 00:43:56;;;;;;;4.43;1.60;;;2.50;99.90;;;;;;6160359;23;20002;-70
2022/12/27 00:46:23;;;;;;;8.05;1.20;;;2.50;99.90;;;;;;6158932;23;20010;-70
2022/12/27 00:48:52;;;;;;;3.83;1.30;;;2.60;99.90;;;;;;6160876;23;20002;-71
2022/12/27 00:51:24;;;;;;;4.82;1.00;;;2.70;99.90;;;;;;6159952;23;20012;-71
2022/12/27 00:53:52;;;;;;;7.47;1.90;;;2.70;99.90;;;;;;6158884;23;20005;-70
2022/12/27 00:56:25;;;;;;;11.80;1.52;;;2.80;99.90;;;;;;6158737;23;20066;-71
2022/12/27 00:59:00;;;;;;;5.85;1.38;;;2.90;99.90;;;;;;6160518;23;20005;-71
2022/12/27 01:01:30;;;;;;;5.82;1.45;;;3.00;99.90;;;;;;6160049;23;20060;-70
2022/12/27 01:03:58;;;;;;;16.48;2.65;;;3.00;99.90;;;;;;6158872;23;20005;-70
2022/12/27 01:06:28;;;;;;;9.25;1.40;;;3.00;99.90;;;;;;6159999;23;20006;-71
2022/12/27 01:08:56;;;;;;;5.25;1.42;;;3.00;99.90;;;;;;6160054;23;20283;-71
2022/12/27 01:11:27;;;;;;;4.75;0.95;;;2.90;99.90;;;;;;6160070;23;20069;-71
2022/12/27 01:13:56;;;;;;;9.50;1.27;;;2.90;99.90;;;;;;6160065;23;20088;-71
2022/12/27 01:16:25;;;;;;;6.68;1.23;;;2.80;99.90;;;;;;6159924;23;20275;-70
2022/12/27 01:18:53;;;;;;;4.70;1.30;;;2.70;99.90;;;;;;6160673;23;20006;-71
2022/12/27 01:21:22;;;;;;;6.95;1.60;;;2.70;99.90;;;;;;6158678;23;20001;-71
2022/12/27 01:23:50;;;;;;;9.20;1.60;;;2.60;99.90;;;;;;6159955;23;20045;-71
2022/12/27 01:26:20;;;;;;;11.18;1.63;;;2.60;99.90;;;;;;6159960;23;20012;-71
2022/12/27 01:28:48;;;;;;;6.43;1.98;;;2.50;99.90;;;;;;6159910;23;20252;-71
2022/12/27 01:31:18;;;;;;;8.45;1.25;;;2.40;99.90;;;;;;6159949;23;20012;-71
2022/12/27 01:33:46;;;;;;;3.67;1.08;;;2.40;99.90;;;;;;6158506;23;20009;-71
2022/12/27 01:36:19;;;;;;;4.40;1.42;;;2.40;99.90;;;;;;6133968;23;20010;-70
2022/12/27 01:38:47;;;;;;;8.88;2.60;;;2.50;99.90;;;;;;6159926;23;20005;-70
2022/12/27 01:44:50;;;;;;;6.53;1.23;;;2.50;99.90;;;;;;6160251;23;20040;-70
2022/12/27 01:47:45;;;;;;;9.25;1.65;;;2.60;99.90;;;;;;6160587;23;20006;-70
2022/12/27 01:50:22;;;;;;;6.07;1.50;;;2.70;99.90;;;;;;6159796;23;20005;-71
2022/12/27 01:52:59;;;;;;;5.18;1.05;;;2.80;99.90;;;;;;6159921;23;20056;-70
2022/12/27 01:55:45;;;;;;;12.25;1.70;;;2.90;99.90;;;;;;6160475;23;20006;-70
2022/12/27 01:58:18;;;;;;;8.50;1.80;;;3.00;99.90;;;;;;6160733;23;20001;-70
2022/12/27 02:00:47;;;;;;;4.72;1.33;;;3.10;99.90;;;;;;6159847;23;20055;-70
2022/12/27 02:03:33;;;;;;;2.47;0.82;;;3.20;99.90;;;;;;6160227;23;20002;-70
2022/12/27 02:06:02;;;;;;;5.55;1.65;;;3.30;99.90;;;;;;6162749;23;20336;-70
2022/12/27 02:08:37;;;;;;;3.10;1.35;;;3.30;99.90;;;;;;6161887;23;20013;-71
2022/12/27 02:11:06;;;;;;;6.47;0.90;;;3.40;99.90;;;;;;6162059;23;20006;-70
2022/12/27 02:13:37;;;;;;;5.63;1.17;;;3.40;99.90;;;;;;6160326;23;20283;-70
2022/12/27 02:16:16;;;;;;;4.57;1.80;;;3.50;99.90;;;;;;6160202;23;20005;-71
2022/12/27 02:18:44;;;;;;;3.75;1.00;;;3.50;99.90;;;;;;6161726;23;20080;-70
2022/12/27 02:21:18;;;;;;;6.25;0.90;;;3.50;99.90;;;;;;6161597;23;20001;-70
2022/12/27 02:24:14;;;;;;;6.72;1.17;;;3.50;99.90;;;;;;6161865;23;20021;-70
2022/12/27 02:27:14;;;;;;;5.60;1.20;;;3.50;99.90;;;;;;6161496;23;20326;-71
2022/12/27 02:29:53;;;;;;;4.28;1.27;;;3.60;99.90;;;;;;6156091;23;20009;-71
2022/12/27 02:32:44;;;;;;;6.43;1.50;;;3.50;99.90;;;;;;6161449;23;20012;-70
2022/12/27 02:35:34;;;;;;;4.93;0.93;;;3.50;99.90;;;;;;6161329;23;20056;-71
2022/12/27 02:38:15;;;;;;;7.15;2.45;;;3.50;99.90;;;;;;6162301;23;20355;-70
2022/12/27 02:55:31;;;;;;;3.80;1.30;;;3.60;99.90;;;;;;6161194;23;20290;-71
2022/12/27 02:58:12;;;;;;;7.60;1.95;;;3.60;99.90;;;;;;6161202;23;20010;-71
2022/12/27 03:04:22;;;;;;;6.38;2.28;;;3.60;99.90;;;;;;6161439;23;20025;-71
2022/12/27 03:07:07;;;;;;;6.80;2.42;;;3.60;99.90;;;;;;6161143;23;20012;-71
2022/12/27 03:15:56;;;;;;;6.30;2.38;;;3.70;99.90;;;;;;6160788;23;20024;-71
2022/12/27 03:18:42;;;;;;;7.13;2.35;;;3.70;99.90;;;;;;6161057;23;20008;-71
2022/12/27 03:26:50;;;;;;;8.70;3.55;;;3.70;99.90;;;;;;6160746;23;20100;-71
2022/12/27 03:35:08;;;;;;;11.90;2.72;;;3.80;99.90;;;;;;6160742;23;20060;-71
2022/12/27 03:43:09;;;;;;;8.63;3.08;;;3.80;99.90;;;;;;6161221;23;20009;-71
2022/12/27 03:43:27;;;;;;;7.50;2.50;;;3.80;99.90;;;;;;6160776;23;20012;-72
2022/12/27 03:46:35;;;;;;;6.30;2.42;;;3.80;99.90;;;;;;6160304;23;20362;-71
2022/12/27 03:49:32;;;;;;;8.15;3.92;;;3.80;99.90;;;;;;6161402;23;20005;-71
2022/12/27 03:52:29;;;;;;;15.38;3.10;;;3.90;99.90;;;;;;6161556;23;20010;-71
2022/12/27 03:54:58;;;;;;;8.25;3.03;;;3.90;99.90;;;;;;6160268;23;20012;-71
2022/12/27 03:57:28;;;;;;;11.88;4.03;;;3.90;99.90;;;;;;6160673;23;20069;-71
2022/12/27 03:59:55;;;;;;;9.25;2.45;;;3.90;99.90;;;;;;6161333;23;20028;-71
2022/12/27 04:02:22;;;;;;;18.13;3.45;;;3.90;99.90;;;;;;6159656;23;20001;-71
2022/12/27 04:04:50;;;;;;;9.68;3.33;;;3.90;99.90;;;;;;6161218;23;20002;-71
2022/12/27 04:07:17;;;;;;;10.02;2.70;;;4.00;99.90;;;;;;6159316;23;20010;-71
2022/12/27 04:34:43;;;;;;;6.57;2.95;;;4.20;99.90;;;;;;6160200;23;20058;-71
2022/12/27 04:37:14;;;;;;;13.20;2.75;;;4.20;99.90;;;;;;6160423;23;19997;-71
2022/12/27 04:56:17;;;;;;;10.18;3.95;;;4.30;99.90;;;;;;6159404;23;20016;-71
2022/12/27 05:04:15;;;;;;;10.07;3.38;;;4.30;99.90;;;;;;6159207;23;20013;-71
2022/12/27 05:06:43;;;;;;;6.93;3.60;;;4.30;99.90;;;;;;6158740;23;20275;-71
2022/12/27 05:14:41;;;;;;;6.40;3.88;;;4.30;99.90;;;;;;6160325;23;20318;-71
2022/12/27 05:17:08;;;;;;;11.13;2.88;;;4.30;99.90;;;;;;6158755;23;20044;-71
2022/12/27 05:19:36;;;;;;;12.77;4.07;;;4.30;99.90;;;;;;6158588;23;20378;-71
2022/12/27 05:27:34;;;;;;;4.88;2.88;;;4.30;99.90;;;;;;6160019;23;20041;-71
2022/12/27 05:30:01;;;;;;;8.60;3.50;;;4.30;99.90;;;;;;6160623;23;19998;-71
2022/12/27 05:32:29;;;;;;;8.68;3.53;;;4.30;99.90;;;;;;6160631;23;20060;-71
2022/12/27 05:34:56;;;;;;;11.90;4.28;;;4.30;99.90;;;;;;6159808;23;20012;-71
2022/12/27 05:37:23;;;;;;;10.32;4.20;;;4.30;99.90;;;;;;6160147;23;20069;-71
2022/12/27 05:39:51;;;;;;;34.38;5.22;;;4.30;99.90;;;;;;6161719;23;20002;-71
2022/12/27 05:42:18;;;;;;;14.10;3.95;;;4.30;99.90;;;;;;6162685;23;20005;-71
2022/12/27 05:44:45;;;;;;;11.18;3.88;;;4.30;99.90;;;;;;6136048;23;20006;-71
2022/12/27 05:47:12;;;;;;;9.60;3.85;;;4.30;99.90;;;;;;6162140;23;20005;-70
2022/12/27 05:49:39;;;;;;;9.25;4.00;;;4.30;99.90;;;;;;6161845;23;20001;-71
2022/12/27 05:52:07;;;;;;;10.40;3.97;;;4.30;99.90;;;;;;6161894;23;20386;-71
2022/12/27 05:54:34;;;;;;;9.68;3.92;;;4.30;99.90;;;;;;6161796;23;20008;-71
2022/12/27 05:57:01;;;;;;;7.90;4.05;;;4.30;99.90;;;;;;6162333;23;20351;-71
2022/12/27 05:59:28;;;;;;;16.23;6.00;;;4.30;99.90;;;;;;6160489;23;20002;-71
2022/12/27 06:01:55;;;;;;;12.65;4.45;;;4.30;99.90;;;;;;6161824;23;19998;-71
2022/12/27 06:04:23;;;;;;;11.55;5.13;;;4.30;99.90;;;;;;6161731;23;19997;-71
2022/12/27 06:06:50;;;;;;;6.93;4.18;;;4.30;99.90;;;;;;6161633;23;20032;-71
2022/12/27 06:09:18;;;;;;;12.10;4.90;;;4.30;99.90;;;;;;6161918;23;20005;-71
2022/12/27 06:11:45;;;;;;;8.43;4.57;;;4.30;99.90;;;;;;6162333;23;20002;-71
2022/12/27 06:14:13;;;;;;;13.50;5.90;;;4.30;99.90;;;;;;6161721;23;20009;-71
2022/12/27 06:16:40;;;;;;;11.45;5.72;;;4.30;99.90;;;;;;6161921;23;20060;-71
2022/12/27 06:19:07;;;;;;;7.90;5.15;;;4.30;99.90;;;;;;6162107;23;19997;-71
2022/12/27 06:21:35;;;;;;;9.10;5.35;;;4.40;99.90;;;;;;6162344;23;20033;-71
2022/12/27 06:24:02;;;;;;;12.43;4.95;;;4.30;99.90;;;;;;6159934;23;20157;-71
2022/12/27 06:26:30;;;;;;;9.50;4.18;;;4.40;99.90;;;;;;6161894;23;20057;-71
2022/12/27 06:28:58;;;;;;;10.98;5.85;;;4.40;99.90;;;;;;6162119;23;20258;-72
2022/12/27 06:31:26;;;;;;;8.25;4.82;;;4.40;99.90;;;;;;6160192;23;20033;-71
2022/12/27 06:33:54;;;;;;;9.05;4.43;;;4.40;99.90;;;;;;6161416;23;20279;-71
2022/12/27 06:36:25;;;;;;;7.72;4.20;;;4.40;99.90;;;;;;6162055;23;20011;-71
2022/12/27 06:38:52;;;;;;;10.38;5.30;;;4.40;99.90;;;;;;6161377;23;19997;-71
2022/12/27 06:41:20;;;;;;;15.40;5.38;;;4.40;99.90;;;;;;6161469;23;20025;-71
2022/12/27 06:43:48;;;;;;;17.08;7.22;;;4.40;99.90;;;;;;6160106;23;20056;-71
2022/12/27 06:46:17;;;;;;;9.82;5.40;;;4.40;99.90;;;;;;6161709;23;20377;-71
2022/12/27 06:48:48;;;;;;;15.80;5.30;;;4.40;99.90;;;;;;6161254;23;20291;-71
2022/12/27 06:51:18;;;;;;;11.63;5.18;;;4.40;99.90;;;;;;6161874;23;20006;-71
2022/12/27 06:53:46;;;;;;;12.52;5.30;;;4.40;99.90;;;;;;6161463;23;20009;-71
2022/12/27 06:56:17;;;;;;;9.32;5.30;;;4.30;99.90;;;;;;6161836;23;20002;-71
2022/12/27 06:58:46;;;;;;;12.27;5.82;;;4.30;99.90;;;;;;6161170;23;20009;-71
2022/12/27 07:01:19;;;;;;;9.73;5.53;;;4.40;99.90;;;;;;6161695;23;20288;-71
2022/12/27 07:03:55;;;;;;;14.02;6.07;;;4.40;99.90;;;;;;6162023;23;20307;-71
2022/12/27 07:06:23;;;;;;;10.82;7.03;;;4.40;99.90;;;;;;6161875;23;20027;-71
2022/12/27 07:08:52;;;;;;;9.05;5.57;;;4.40;99.90;;;;;;6161192;23;20076;-71
2022/12/27 07:11:20;;;;;;;11.32;6.70;;;4.40;99.90;;;;;;6159804;23;20009;-71
2022/12/27 07:13:52;;;;;;;10.48;6.75;;;4.40;99.90;;;;;;6161330;23;20006;-71
2022/12/27 07:16:22;;;;;;;15.43;6.30;;;4.40;99.90;;;;;;6159680;23;20068;-71
2022/12/27 07:18:49;;;;;;;14.85;6.60;;;4.40;99.90;;;;;;6161037;23;20009;-71
2022/12/27 07:21:19;;;;;;;14.45;6.85;;;4.40;99.90;;;;;;6159746;23;20006;-71
2022/12/27 07:23:46;;;;;;;15.82;7.30;;;4.40;99.90;;;;;;6161208;23;20018;-71
2022/12/27 07:26:19;;;;;;;16.40;8.52;;;4.40;99.90;;;;;;6161699;23;20006;-71
2022/12/27 07:28:47;;;;;;;15.63;8.15;;;4.40;99.90;;;;;;6161342;23;20001;-71
2022/12/27 07:31:19;;;;;;;13.10;7.32;;;4.40;99.90;;;;;;6161651;23;20009;-71
2022/12/27 07:33:47;;;;;;;16.33;6.82;;;4.40;99.90;;;;;;6159901;23;20002;-71
2022/12/27 07:36:17;;;;;;;11.23;6.30;;;4.40;99.90;;;;;;6159532;23;20064;-71
2022/12/27 07:38:45;;;;;;;21.83;6.80;;;4.50;99.90;;;;;;6159613;23;20008;-71
2022/12/27 07:41:13;;;;;;;15.68;5.80;;;4.40;99.90;;;;;;6159513;23;20001;-71
2022/12/27 07:43:42;;;;;;;19.35;5.30;;;4.40;99.90;;;;;;6161689;23;20001;-71
2022/12/27 07:46:15;;;;;;;15.68;6.25;;;4.50;99.90;;;;;;6161104;23;20013;-71
2022/12/27 07:48:43;;;;;;;11.40;5.45;;;4.50;99.90;;;;;;6161007;23;20417;-71
2022/12/27 07:51:11;;;;;;;9.65;4.38;;;4.50;99.90;;;;;;6160674;23;20013;-71
2022/12/27 07:53:38;;;;;;;16.70;5.68;;;4.50;99.90;;;;;;6159425;23;20340;-71
2022/12/27 07:56:15;;;;;;;13.85;5.15;;;4.60;99.90;;;;;;6160956;23;20076;-71
2022/12/27 07:58:44;;;;;;;14.85;5.07;;;4.60;99.90;;;;;;6160687;23;20124;-71
2022/12/27 08:01:13;;;;;;;8.38;4.50;;;4.60;99.90;;;;;;6160752;23;19997;-71
2022/12/27 08:03:41;;;;;;;10.20;4.70;;;4.60;99.90;;;;;;6160564;23;20005;-71
2022/12/27 08:06:29;;;;;;;10.07;4.60;;;4.60;99.90;;;;;;6160637;23;20001;-71
2022/12/27 08:09:07;;;;;;;13.85;4.45;;;4.60;99.90;;;;;;6160564;23;20032;-71
2022/12/27 08:11:34;;;;;;;7.75;3.25;;;4.70;99.90;;;;;;6161257;23;20001;-71
2022/12/27 08:14:02;;;;;;;11.63;4.60;;;4.70;99.90;;;;;;6160538;23;20270;-71
2022/12/27 08:16:29;;;;;;;11.35;4.00;;;4.70;99.90;;;;;;6159081;23;20021;-71
2022/12/27 08:18:57;;;;;;;6.95;2.90;;;4.70;99.90;;;;;;6159894;23;20002;-71
2022/12/27 08:21:24;;;;;;;11.30;3.85;;;4.70;99.90;;;;;;6160526;23;20033;-71
2022/12/27 08:23:52;;;;;;;13.82;5.53;;;4.70;99.90;;;;;;6160287;23;20475;-71
2022/12/27 08:26:20;;;;;;;6.80;3.42;;;4.70;99.90;;;;;;6159216;23;20010;-71
2022/12/27 08:28:47;;;;;;;12.98;5.13;;;4.70;99.90;;;;;;6160602;23;20080;-71
2022/12/27 08:31:16;;;;;;;17.27;4.95;;;4.70;99.90;;;;;;6160259;23;20381;-71
2022/12/27 08:33:43;;;;;;;12.85;4.93;;;4.70;99.90;;;;;;6160200;23;20006;-71
2022/12/27 08:36:12;;;;;;;11.52;5.22;;;4.70;99.90;;;;;;6160183;23;20029;-71
2022/12/27 08:38:39;;;;;;;8.07;5.20;;;4.70;99.90;;;;;;6159991;23;20128;-71
2022/12/27 08:41:06;;;;;;;14.75;4.95;;;4.70;99.90;;;;;;6160322;23;20433;-71
2022/12/27 08:43:34;;;;;;;10.05;5.05;;;4.70;99.90;;;;;;6160972;23;20073;-71
2022/12/27 08:46:03;;;;;;;7.88;4.75;;;4.70;99.90;;;;;;6160926;23;20005;-71
2022/12/27 08:48:32;;;;;;;8.30;4.60;;;4.80;99.90;;;;;;6160268;23;20088;-71
2022/12/27 08:51:07;;;;;;;16.33;5.28;;;4.80;99.90;;;;;;6160229;23;20009;-71
2022/12/27 08:53:34;;;;;;;10.20;4.85;;;4.80;99.90;;;;;;6160268;23;20077;-71
2022/12/27 08:56:02;;;;;;;13.10;5.03;;;4.80;99.90;;;;;;6158808;23;20012;-71
2022/12/27 08:58:29;;;;;;;14.00;4.63;;;4.80;99.90;;;;;;6160268;23;20010;-71
2022/12/27 09:01:04;;;;;;;7.72;4.30;;;4.90;99.90;;;;;;6160858;23;20028;-71
2022/12/27 09:03:31;;;;;;;8.70;3.97;;;4.90;99.90;;;;;;6160046;23;19998;-72
2022/12/27 09:06:09;;;;;;;10.90;4.05;;;4.90;99.90;;;;;;6159112;23;20024;-71
2022/12/27 09:08:37;;;;;;;14.57;4.53;;;4.90;99.90;;;;;;6160734;23;20065;-71
2022/12/27 09:11:16;;;;;;;10.65;4.55;;;4.90;99.90;;;;;;6160739;23;20002;-72
2022/12/27 09:13:43;;;;;;;10.13;4.65;;;4.90;99.90;;;;;;6159632;23;20009;-71
2022/12/27 09:16:17;;;;;;;9.48;5.28;;;4.90;99.90;;;;;;6159112;23;20009;-71
2022/12/27 09:18:48;;;;;;;13.10;5.97;;;4.90;99.90;;;;;;6159940;23;20025;-71
2022/12/27 09:21:17;;;;;;;12.35;5.22;;;4.90;99.90;;;;;;6160827;23;20024;-71
2022/12/27 09:23:45;;;;;;;9.13;5.15;;;4.90;99.90;;;;;;6160018;23;20429;-72
2022/12/27 09:26:15;;;;;;;11.23;5.10;;;4.90;99.90;;;;;;6158636;23;20016;-71
2022/12/27 09:28:43;;;;;;;12.43;5.35;;;4.90;99.90;;;;;;6159991;23;20270;-71
2022/12/27 09:31:12;;;;;;;8.48;5.40;;;4.90;99.90;;;;;;6160622;23;20008;-71
2022/12/27 09:33:40;;;;;;;12.43;6.32;;;4.90;99.90;;;;;;6160084;23;20438;-71
2022/12/27 09:36:16;;;;;;;9.55;5.55;;;4.90;99.90;;;;;;6160516;23;20006;-71
2022/12/27 09:38:45;;;;;;;13.25;5.40;;;5.00;99.90;;;;;;6160268;23;20237;-71
2022/12/27 09:41:36;;;;;;;10.35;4.88;;;5.00;99.90;;;;;;6160207;23;20029;-71
2022/12/27 09:44:09;;;;;;;8.13;4.70;;;5.00;99.90;;;;;;6159804;23;20383;-71
2022/12/27 09:47:00;;;;;;;12.38;5.88;;;5.10;99.90;;;;;;6160572;23;20378;-71
2022/12/27 09:49:41;;;;;;;15.68;5.53;;;5.10;99.90;;;;;;6159843;23;20081;-72
2022/12/27 09:52:20;;;;;;;11.55;4.75;;;5.10;99.90;;;;;;6160594;23;20017;-71
2022/12/27 09:55:06;;;;;;;11.57;5.30;;;5.20;99.90;;;;;;6159802;23;20001;-71
2022/12/27 09:57:41;;;;;;;8.73;4.25;;;5.10;99.90;;;;;;6160063;23;19997;-71
2022/12/27 10:00:25;;;;;;;10.70;5.53;;;5.10;99.90;;;;;;6158488;23;20002;-71
2022/12/27 10:02:54;;;;;;;12.38;5.50;;;5.10;99.90;;;;;;6160480;23;19998;-71
2022/12/27 10:05:26;;;;;;;9.70;5.05;;;5.10;99.90;;;;;;6159738;23;20040;-71
2022/12/27 10:08:00;;;;;;;10.15;4.28;;;5.10;99.90;;;;;;6159993;23;20010;-71
2022/12/27 10:10:33;;;;;;;10.90;5.97;;;5.10;99.90;;;;;;6159779;23;20078;-71
2022/12/27 10:13:24;;;;;;;10.27;5.07;;;5.10;99.90;;;;;;6160494;23;20008;-71
2022/12/27 10:16:04;;;;;;;10.13;5.20;;;5.10;99.90;;;;;;6160044;23;20001;-71
2022/12/27 10:18:45;;;;;;;13.70;5.35;;;5.20;99.90;;;;;;6160218;23;19998;-71
2022/12/27 10:21:22;;;;;;;13.68;6.32;;;5.20;99.90;;;;;;6159778;23;20005;-71
2022/12/27 10:24:15;;;;;;;11.48;5.50;;;5.10;99.90;;;;;;6159781;23;20018;-71
2022/12/27 10:26:44;;;;;;;8.63;5.15;;;5.10;99.90;;;;;;6142506;23;20002;-71
2022/12/27 10:29:23;;;;;;;18.80;6.40;;;5.10;99.90;;;;;;6162060;23;20005;-71
2022/12/27 10:31:50;;;;;;;14.30;6.40;;;5.10;99.90;;;;;;6162208;23;19998;-71
2022/12/27 10:34:23;;;;;;;14.05;5.80;;;5.10;99.90;;;;;;6162121;23;20146;-71
2022/12/27 10:36:52;;;;;;;11.85;5.55;;;5.10;99.90;;;;;;6161199;23;20068;-71
2022/12/27 10:39:26;;;;;;;14.15;6.28;;;5.10;99.90;;;;;;6161401;23;20010;-71
2022/12/27 10:42:01;;;;;;;11.25;5.65;;;5.10;99.90;;;;;;6161401;23;20028;-71
2022/12/27 10:44:29;;;;;;;18.20;6.15;;;5.10;99.90;;;;;;6160133;23;20326;-71
2022/12/27 10:46:56;;;;;;;12.73;6.60;;;5.20;99.90;;;;;;6162084;23;20001;-71
2022/12/27 10:49:27;;;;;;;12.23;6.65;;;5.10;99.90;;;;;;6161900;23;20036;-71
2022/12/27 10:51:58;;;;;;;10.85;5.97;;;5.10;99.90;;;;;;6161365;23;20001;-71
2022/12/27 10:54:28;;;;;;;11.05;5.20;;;5.10;99.90;;;;;;6159901;23;20035;-71
2022/12/27 10:57:00;;;;;;;13.77;5.40;;;5.20;99.90;;;;;;6161135;23;20322;-71
2022/12/27 10:59:29;;;;;;;12.60;6.50;;;5.20;99.90;;;;;;6161966;23;20005;-71
2022/12/27 11:02:02;;;;;;;15.80;6.68;;;5.20;99.90;;;;;;6161594;23;20002;-71
2022/12/27 11:04:31;;;;;;;16.73;7.18;;;5.20;99.90;;;;;;6161455;23;20008;-71
2022/12/27 11:07:00;;;;;;;13.80;6.72;;;5.30;99.90;;;;;;6161232;23;20027;-71
2022/12/27 11:09:35;;;;;;;10.63;4.07;;;5.30;99.90;;;;;;6161894;23;20001;-71
2022/12/27 11:12:27;;;;;;;13.55;6.95;;;5.30;99.90;;;;;;6161393;23;20013;-71
2022/12/27 11:15:00;;;;;;;10.63;5.45;;;5.40;99.90;;;;;;6162169;23;20060;-71
2022/12/27 11:17:54;;;;;;;15.60;6.85;;;5.50;99.90;;;;;;6164487;23;20379;-71
2022/12/27 11:20:28;;;;;;;8.93;4.82;;;5.60;99.90;;;;;;6149006;23;20374;-71
2022/12/27 11:23:01;;;;;;;12.20;4.88;;;5.70;99.90;;;;;;6161256;23;20005;-71
2022/12/27 11:25:29;;;;;;;14.82;4.82;;;5.80;99.90;;;;;;6159382;23;20093;-71
2022/12/27 11:28:14;;;;;;;7.82;4.72;;;5.90;99.90;;;;;;6161106;23;20033;-71
2022/12/27 11:30:56;;;;;;;17.45;6.82;;;6.00;99.90;;;;;;6161616;23;19998;-71
2022/12/27 11:33:36;;;;;;;13.80;5.53;;;6.00;99.90;;;;;;6159673;23;20002;-71
2022/12/27 11:36:05;;;;;;;10.40;5.35;;;6.00;99.90;;;;;;6161033;23;20013;-71
2022/12/27 11:38:34;;;;;;;12.75;6.00;;;5.90;99.90;;;;;;6160814;23;20006;-71
2022/12/27 11:41:20;;;;;;;9.18;5.18;;;5.80;99.90;;;;;;6160811;23;20001;-71
2022/12/27 11:44:21;;;;;;;9.40;5.90;;;5.80;99.90;;;;;;6159619;23;20088;-72
2022/12/27 11:47:24;;;;;;;13.68;7.15;;;5.80;99.90;;;;;;6136091;23;20305;-72
2022/12/27 11:50:00;;;;;;;16.85;6.03;;;5.80;99.90;;;;;;6160758;23;20355;-71
2022/12/27 11:52:56;;;;;;;19.95;6.72;;;5.80;99.90;;;;;;6160757;23;20012;-72
2022/12/27 11:55:42;;;;;;;10.68;5.13;;;5.80;99.90;;;;;;6159455;23;20005;-71
2022/12/27 11:58:39;;;;;;;12.75;5.80;;;5.80;99.90;;;;;;6161634;23;20043;-71
2022/12/27 12:01:43;;;;;;;12.57;6.82;;;5.80;99.90;;;;;;6161263;23;20068;-71
2022/12/27 12:04:38;;;;;;;17.38;6.47;;;5.80;99.90;;;;;;6160619;23;19997;-71
2022/12/27 12:07:27;;;;;;;11.95;6.43;;;5.80;99.90;;;;;;6160750;23;20252;-71
2022/12/27 12:10:09;;;;;;;11.38;5.60;;;5.80;99.90;;;;;;6159322;23;20012;-72
2022/12/27 12:13:12;;;;;;;10.48;5.57;;;5.70;99.90;;;;;;6161323;23;20032;-72
2022/12/27 12:16:19;;;;;;;25.77;8.13;;;5.70;99.90;;;;;;6160483;23;20035;-72
2022/12/27 12:19:07;;;;;;;13.60;6.22;;;5.70;99.90;;;;;;6160660;23;20359;-71
2022/12/27 12:22:09;;;;;;;13.73;5.82;;;5.70;99.90;;;;;;6161201;23;20258;-71
2022/12/27 12:24:56;;;;;;;10.93;5.47;;;5.70;99.90;;;;;;6136989;23;20017;-72
2022/12/27 12:27:38;;;;;;;11.15;5.90;;;5.60;99.90;;;;;;6160638;23;20374;-71
2022/12/27 12:30:39;;;;;;;29.80;7.22;;;5.60;99.90;;;;;;6160762;23;20052;-72
2022/12/27 12:33:48;;;;;;;13.35;6.63;;;5.60;99.90;;;;;;6160772;23;20240;-71
2022/12/27 12:36:53;;;;;;;13.63;6.68;;;5.60;99.90;;;;;;6057142;23;20416;-71
2022/12/27 12:39:48;;;;;;;10.27;5.68;;;5.60;99.90;;;;;;6135222;23;20432;-71
2022/12/27 12:42:36;;;;;;;13.85;7.22;;;5.70;99.90;;;;;;6160333;23;19998;-71
2022/12/27 12:45:37;;;;;;;13.25;7.30;;;5.70;99.90;;;;;;6160954;23;20002;-72
2022/12/27 12:48:19;;;;;;;16.30;7.28;;;5.70;99.90;;;;;;6161272;23;20009;-72
2022/12/27 12:51:17;;;;;;;11.77;7.28;;;5.70;99.90;;;;;;6160948;23;20363;-71
2022/12/27 12:54:14;;;;;;;14.65;7.10;;;5.70;99.90;;;;;;6160563;23;20445;-71
2022/12/27 12:57:27;;;;;;;8.90;5.55;;;5.80;99.90;;;;;;6158791;23;20009;-72
2022/12/27 13:00:32;;;;;;;20.05;8.02;;;5.80;99.90;;;;;;6158790;23;20278;-72
2022/12/27 13:03:09;;;;;;;14.43;7.65;;;5.70;99.90;;;;;;6160796;23;20002;-71
2022/12/27 13:06:12;;;;;;;15.50;8.80;;;5.70;99.90;;;;;;6164531;23;20076;-71
2022/12/27 13:08:58;;;;;;;19.20;8.10;;;5.70;99.90;;;;;;6158762;23;20009;-71
2022/12/27 13:11:41;;;;;;;13.77;7.53;;;5.80;99.90;;;;;;6160823;23;20076;-71
2022/12/27 13:14:53;;;;;;;13.20;7.70;;;5.80;99.90;;;;;;6160915;23;20137;-71
2022/12/27 13:17:59;;;;;;;23.42;7.60;;;5.90;99.90;;;;;;6159991;23;20009;-71
2022/12/27 13:21:03;;;;;;;13.73;7.30;;;5.90;99.90;;;;;;6159938;23;20052;-71
2022/12/27 13:24:04;;;;;;;23.98;7.95;;;5.90;99.90;;;;;;6160543;23;20002;-72
2022/12/27 13:26:59;;;;;;;17.70;7.22;;;5.90;99.90;;;;;;6160491;23;20069;-71
2022/12/27 13:29:42;;;;;;;14.60;6.38;;;5.90;99.90;;;;;;6161296;23;20060;-71
2022/12/27 13:32:13;;;;;;;13.57;6.97;;;5.80;99.90;;;;;;6160816;23;20008;-71
2022/12/27 13:34:50;;;;;;;11.75;5.78;;;5.90;99.90;;;;;;6160082;23;20001;-71
2022/12/27 13:37:35;;;;;;;12.13;5.00;;;5.80;99.90;;;;;;6160655;23;20010;-71
2022/12/27 13:40:40;;;;;;;10.40;5.20;;;5.80;99.90;;;;;;6159905;23;20030;-71
2022/12/27 13:43:42;;;;;;;9.98;5.57;;;5.80;99.90;;;;;;6160078;23;20308;-71
2022/12/27 13:46:31;;;;;;;10.40;4.97;;;5.90;99.90;;;;;;6159803;23;20256;-71
2022/12/27 13:49:25;;;;;;;21.90;7.38;;;5.90;99.90;;;;;;6158546;23;20449;-71
2022/12/27 13:52:23;;;;;;;8.85;4.35;;;6.00;99.90;;;;;;6160580;23;20375;-71
2022/12/27 13:55:14;;;;;;;11.82;4.40;;;6.00;99.90;;;;;;6160419;23;20001;-71
2022/12/27 13:58:16;;;;;;;14.70;5.50;;;6.00;99.90;;;;;;6160601;23;19998;-71
2022/12/27 14:01:19;;;;;;;14.95;4.35;;;5.90;99.90;;;;;;6161790;23;19997;-71
2022/12/27 14:04:14;;;;;;;17.63;3.92;;;5.90;99.90;;;;;;6162622;23;19997;-71
2022/12/27 14:06:56;;;;;;;11.77;3.70;;;5.90;99.90;;;;;;6160401;23;20013;-71
2022/12/27 14:09:55;;;;;;;11.95;5.35;;;5.90;99.90;;;;;;6161854;23;20075;-71
2022/12/27 14:12:51;;;;;;;9.63;3.72;;;5.90;99.90;;;;;;6141141;23;20066;-71
2022/12/27 14:15:34;;;;;;;10.07;4.05;;;5.90;99.90;;;;;;6161968;23;19998;-71
2022/12/27 14:18:56;;;;;;;8.73;3.65;;;5.90;99.90;;;;;;6161667;23;20394;-71
2022/12/27 14:21:48;;;;;;;11.32;4.97;;;5.90;99.90;;;;;;6043776;23;20015;-71
2022/12/27 14:24:58;;;;;;;10.60;4.70;;;5.90;99.90;;;;;;6158253;23;20020;-71
2022/12/27 14:27:44;;;;;;;8.45;3.60;;;5.90;99.90;;;;;;6160462;23;20005;-71
2022/12/27 14:30:41;;;;;;;12.48;4.95;;;5.90;99.90;;;;;;6162332;23;20002;-72
2022/12/27 14:33:26;;;;;;;7.70;3.63;;;5.90;99.90;;;;;;6161877;23;20005;-72
2022/12/27 14:36:19;;;;;;;9.32;2.83;;;5.90;99.90;;;;;;6162065;23;20029;-72
2022/12/27 14:38:53;;;;;;;6.78;2.60;;;5.90;99.90;;;;;;6162330;23;20002;-72
2022/12/27 14:41:50;;;;;;;4.72;2.25;;;5.90;99.90;;;;;;6162123;23;20072;-72
2022/12/27 14:44:53;;;;;;;6.40;2.00;;;5.90;99.90;;;;;;6162036;23;20005;-71
2022/12/27 14:47:20;;;;;;;6.72;2.45;;;5.90;99.90;;;;;;6160233;23;20032;-72
2022/12/27 14:50:00;;;;;;;8.55;2.80;;;5.90;99.90;;;;;;6161197;23;20025;-72
2022/12/27 14:53:11;;;;;;;5.57;2.03;;;5.90;99.90;;;;;;6160059;23;20025;-72
2022/12/27 14:55:48;;;;;;;5.20;1.80;;;5.80;99.90;;;;;;6162144;23;20374;-71
2022/12/27 14:58:22;;;;;;;21.40;6.25;;;5.80;99.90;;;;;;6162098;23;20259;-72
2022/12/27 15:00:58;;;;;;;12.68;4.60;;;5.80;99.90;;;;;;6161948;23;20006;-71
2022/12/27 15:04:14;;;;;;;10.80;2.30;;;5.70;99.90;;;;;;6161824;23;20004;-72
2022/12/27 15:07:24;;;;;;;14.40;4.10;;;5.70;99.90;;;;;;6106795;23;20072;-72
2022/12/27 15:10:24;;;;;;;14.48;3.25;;;5.70;99.90;;;;;;6161534;23;20006;-72
2022/12/27 15:13:18;;;;;;;9.88;2.53;;;5.60;99.90;;;;;;6160907;23;20056;-71
2022/12/27 15:15:55;;;;;;;13.60;2.88;;;5.60;99.90;;;;;;6164140;23;20013;-72
2022/12/27 15:19:02;;;;;;;5.82;2.13;;;5.50;99.90;;;;;;6161827;23;20071;-71
2022/12/27 15:21:42;;;;;;;7.35;2.20;;;5.40;99.90;;;;;;6145352;23;20315;-71
2022/12/27 15:24:34;;;;;;;7.32;1.95;;;5.50;99.90;;;;;;6160605;23;20021;-72